Aérodrome :
LOGIN :

S'inscrire | Disclaimer

   EN    FR    IT 

 










Légende :    VFR   VFR Marginal   IFR   IFR Intensif   IFR Très Intensif
Visi : 
Plafond : 
>= 8 km
>= 3000ft
5 à 8 km
1000 à 3000 ft
1500m à 5 km
500 à 1000 ft
800 à 1500m
200 à 500 ft
< 800m
< 200 ft
Symboles :   Orages  Brouillard  Fortes neiges  Fortes précipitations  Vent > 20 kt
SIGMETs :   Divers  Orages  Givrage  Turbulence  Onde Orograph.  Cendres Volcan.






- Altitude de l'aérodrome : 59 ft
- Code IATA : TSF


LIPH - Treviso

DERNIER METAR :
  • 230920Z 08003KT 010V140 9999 FEW020 21/14 Q1016

METARs EXPIRÉS :
  • 230850Z VRB02KT 9999 FEW020 20/14 Q1016
  • 230820Z VRB01KT 9999 FEW020 20/13 Q1016
  • 230750Z VRB02KT 9999 FEW020 20/14 Q1016
  • 230720Z VRB01KT CAVOK 20/13 Q1016
  • 230650Z VRB02KT CAVOK 19/14 Q1016
  • 230620Z VRB01KT CAVOK 18/14 Q1016
  • 230550Z VRB01KT CAVOK 17/15 Q1016
  • 230520Z 00000KT CAVOK 15/15 Q1016
  • 230450Z AUTO VRB01KT 9999 OVC110/// 15/14 Q1016

TAF TAF LIPH
Valide du 23 à 06h jusqu'au 24 à 06h UTC


230500Z 2306/2406 VRB05KT 9999 SCT030
PROB40
TEMPO 2308/2314 RA
TEMPO 2314/2320 TSRA



MET'MAP, la Météo Aéronautique d'un coup d'oeil ! - Copyright ORBIFLY Décembre 2007 - Disclaimer

ORBIFLY MET'MAP TEAM :

Programmation & Développement : Alexandra Zaïnal
Sur une idée originale de : Baudouin d'Aumeries
Soutien technique & logistique : Manuel Goepfert
Assistance : Marc-Olivier Méhu




SOURCES & CREDITS :

   NOAA